createdAt,value
2019-03-05T00:01:00.222Z,98678.91
2019-03-05T00:04:04.811Z,98666.13
2019-03-05T00:07:09.328Z,98683.02
2019-03-05T00:10:15.281Z,98697.19
2019-03-05T00:13:19.564Z,98691.77
2019-03-05T00:16:23.981Z,98689.13
2019-03-05T00:19:28.428Z,98700.95
2019-03-05T00:22:32.940Z,98702.09
2019-03-05T00:25:38.407Z,98695.69
2019-03-05T00:28:55.219Z,98708.02
2019-03-05T00:31:59.913Z,98723.51
2019-03-05T00:35:52.806Z,98714.27
2019-03-05T00:39:26.786Z,98725.50
2019-03-05T00:43:10.367Z,98726.63
2019-03-05T00:46:45.883Z,98725.88
2019-03-05T00:50:24.943Z,98724.18
2019-03-05T00:54:13.019Z,98744.50
2019-03-05T00:57:41.332Z,98736.92
2019-03-05T01:01:38.796Z,98752.19
2019-03-05T01:05:09.280Z,98765.34
2019-03-05T01:08:13.777Z,98752.96
2019-03-05T01:11:19.377Z,98759.63
2019-03-05T01:14:25.336Z,98776.05
2019-03-05T01:17:29.789Z,98768.86
2019-03-05T01:20:37.517Z,98770.03
2019-03-05T01:23:42.017Z,98794.02
2019-03-05T01:26:46.401Z,98799.81
2019-03-05T01:29:50.973Z,98815.33
2019-03-05T01:33:02.707Z,98808.80
2019-03-05T01:36:11.237Z,98817.83
2019-03-05T01:39:29.745Z,98816.79
2019-03-05T01:42:34.113Z,98823.39
2019-03-05T01:45:40.657Z,98830.23
2019-03-05T01:48:45.438Z,98829.30
2019-03-05T01:51:49.849Z,98836.83
2019-03-05T01:54:54.291Z,98824.09
2019-03-05T01:57:58.841Z,98839.39
2019-03-05T02:01:05.287Z,98850.64
2019-03-05T02:04:09.874Z,98852.66
2019-03-05T02:07:14.678Z,98856.33
2019-03-05T02:10:22.077Z,98863.80
2019-03-05T02:13:29.866Z,98870.91
2019-03-05T02:16:34.438Z,98867.33
2019-03-05T02:19:46.915Z,98877.36
2019-03-05T02:23:12.611Z,98882.26
2019-03-05T02:27:10.093Z,98881.73
2019-03-05T02:30:33.970Z,98890.55
2019-03-05T02:34:16.758Z,98892.53
2019-03-05T02:37:53.951Z,98889.41
2019-03-05T02:41:22.719Z,98891.49
2019-03-05T02:45:05.313Z,98899.27
2019-03-05T02:48:20.524Z,98887.36
2019-03-05T02:52:01.369Z,98897.33
2019-03-05T02:55:29.829Z,98904.31
2019-03-05T02:58:32.377Z,98909.38
2019-03-05T03:02:01.556Z,98904.02
2019-03-05T03:05:24.154Z,98908.64
2019-03-05T03:08:29.022Z,98909.59
2019-03-05T03:11:33.709Z,98913.55
2019-03-05T03:14:38.242Z,98912.81
2019-03-05T03:17:44.793Z,98912.45
2019-03-05T03:20:49.146Z,98909.09
2019-03-05T03:23:53.671Z,98923.14
2019-03-05T03:27:00.804Z,98916.55
2019-03-05T03:30:06.013Z,98917.87
2019-03-05T03:33:10.426Z,98928.70
2019-03-05T03:36:14.851Z,98932.61
2019-03-05T03:39:19.364Z,98933.39
2019-03-05T03:42:23.644Z,98939.20
2019-03-05T03:45:28.276Z,98944.13
2019-03-05T03:48:32.759Z,98947.67
2019-03-05T03:51:37.234Z,98958.58
2019-03-05T03:54:41.922Z,98957.33
2019-03-05T03:57:46.327Z,98955.19
2019-03-05T04:00:50.783Z,98967.81
2019-03-05T04:03:55.233Z,98961.28
2019-03-05T04:06:59.689Z,98978.98
2019-03-05T04:10:04.355Z,98974.02
2019-03-05T04:13:08.869Z,98982.42
2019-03-05T04:16:13.261Z,98980.55
2019-03-05T04:19:21.224Z,98983.81
2019-03-05T04:22:25.635Z,98999.25
2019-03-05T04:25:30.205Z,98993.98
2019-03-05T04:28:38.941Z,98998.25
2019-03-05T04:31:43.420Z,99006.69
2019-03-05T04:34:47.843Z,99007.17
2019-03-05T04:37:53.605Z,99009.45
2019-03-05T04:40:58.033Z,99012.61
2019-03-05T04:44:02.501Z,99010.09
2019-03-05T04:47:09.761Z,99022.64
2019-03-05T04:50:30.721Z,99025.80
2019-03-05T04:53:35.447Z,99023.22
2019-03-05T04:56:40.131Z,99023.97
2019-03-05T04:59:44.707Z,99028.23
2019-03-05T05:02:49.044Z,99031.30
2019-03-05T05:05:53.596Z,99036.51
2019-03-05T05:08:57.951Z,99046.61
2019-03-05T05:12:02.461Z,99052.47
2019-03-05T05:15:10.138Z,99061.92
2019-03-05T05:18:14.885Z,99055.33
2019-03-05T05:21:19.176Z,99053.95
2019-03-05T05:24:23.736Z,99059.22
2019-03-05T05:27:28.143Z,99074.09
2019-03-05T05:30:37.170Z,99075.47
2019-03-05T05:33:41.606Z,99080.78
2019-03-05T05:36:48.862Z,99088.81
2019-03-05T05:40:25.068Z,99105.45
2019-03-05T05:43:33.226Z,99095.44
2019-03-05T05:46:37.388Z,99107.67
2019-03-05T05:49:41.890Z,99106.70
2019-03-05T05:52:46.320Z,99118.28
2019-03-05T05:55:50.682Z,99115.49
2019-03-05T05:59:02.726Z,99138.52
2019-03-05T06:02:09.160Z,99127.42
2019-03-05T06:05:17.214Z,99135.73
2019-03-05T06:08:23.913Z,99140.62
2019-03-05T06:11:28.379Z,99157.44
2019-03-05T06:14:32.950Z,99147.16
2019-03-05T06:17:37.410Z,99151.62
2019-03-05T06:20:42.688Z,99156.90
2019-03-05T06:23:48.987Z,99153.83
2019-03-05T06:26:53.344Z,99164.88
2019-03-05T06:29:57.794Z,99163.85
2019-03-05T06:33:02.163Z,99169.66
2019-03-05T06:36:08.382Z,99182.27
2019-03-05T06:39:12.752Z,99189.06
2019-03-05T06:42:17.190Z,99197.88
2019-03-05T06:45:21.583Z,99191.08
2019-03-05T06:48:25.852Z,99202.34
2019-03-05T06:51:30.163Z,99194.57
2019-03-05T06:54:34.569Z,99205.48
2019-03-05T06:57:39.143Z,99203.30
2019-03-05T07:00:43.536Z,99199.25
2019-03-05T07:03:47.839Z,99207.02
2019-03-05T07:06:57.064Z,99207.92
2019-03-05T07:10:13.293Z,99214.73
2019-03-05T07:13:20.600Z,99217.67
2019-03-05T07:16:49.659Z,99224.00
2019-03-05T07:20:37.186Z,99232.28
2019-03-05T07:24:19.464Z,99242.89
2019-03-05T07:27:37.644Z,99238.87
2019-03-05T07:30:42.958Z,99239.84
2019-03-05T07:33:47.472Z,99242.95
2019-03-05T07:36:51.841Z,99250.39
2019-03-05T07:39:56.127Z,99254.21
2019-03-05T07:43:00.494Z,99247.58
2019-03-05T07:46:04.842Z,99265.48
2019-03-05T07:49:09.141Z,99271.94
2019-03-05T07:52:13.577Z,99274.61
2019-03-05T07:55:18.706Z,99271.73
2019-03-05T07:58:23.005Z,99290.60
2019-03-05T08:01:27.434Z,99306.92
2019-03-05T08:04:31.845Z,99300.77
2019-03-05T08:07:38.520Z,99301.97
2019-03-05T08:10:42.835Z,99306.05
2019-03-05T08:14:28.498Z,99305.70
2019-03-05T08:17:32.818Z,99314.82
2019-03-05T08:20:40.194Z,99316.71
2019-03-05T08:23:44.474Z,99316.95
2019-03-05T08:26:48.829Z,99318.75
2019-03-05T08:29:53.245Z,99327.84
2019-03-05T08:32:58.914Z,99334.52
2019-03-05T08:36:03.391Z,99336.77
2019-03-05T08:39:09.016Z,99341.59
2019-03-05T08:42:13.418Z,99349.56
2019-03-05T08:45:28.491Z,99354.84
2019-03-05T08:48:23.960Z,99365.15
2019-03-05T08:51:28.376Z,99371.73
2019-03-05T08:54:32.659Z,99370.86
2019-03-05T08:57:36.938Z,99376.66
2019-03-05T09:00:41.248Z,99381.73
2019-03-05T09:03:45.649Z,99376.39
2019-03-05T09:06:50.830Z,99384.47
2019-03-05T09:09:58.998Z,99386.70
2019-03-05T09:13:03.522Z,99392.61
2019-03-05T09:16:08.107Z,99401.08
2019-03-05T09:19:14.644Z,99400.18
2019-03-05T09:22:18.927Z,99408.80
2019-03-05T09:25:23.220Z,99413.91
2019-03-05T09:28:27.563Z,99415.16
2019-03-05T09:31:31.863Z,99416.42
2019-03-05T09:34:36.215Z,99413.99
2019-03-05T09:37:40.571Z,99427.42
2019-03-05T09:40:44.975Z,99422.82
2019-03-05T09:43:50.500Z,99439.64
2019-03-05T09:46:54.734Z,99437.57
2019-03-05T09:49:59.061Z,99436.19
2019-03-05T09:53:04.497Z,99442.50
2019-03-05T09:56:09.103Z,99443.39
2019-03-05T09:59:13.515Z,99446.91
2019-03-05T10:02:17.886Z,99447.63
2019-03-05T10:05:22.344Z,99455.66
2019-03-05T10:08:32.541Z,99451.77
2019-03-05T10:11:34.183Z,99464.48
2019-03-05T10:14:39.456Z,99462.05
2019-03-05T10:17:44.415Z,99463.27
2019-03-05T10:20:49.469Z,99473.00
2019-03-05T10:23:54.711Z,99470.27
2019-03-05T10:26:59.739Z,99484.25
2019-03-05T10:30:06.571Z,99488.27
2019-03-05T10:33:11.763Z,99494.66
2019-03-05T10:36:16.932Z,99496.57
2019-03-05T10:39:31.027Z,99504.02
2019-03-05T10:42:35.211Z,99500.25
2019-03-05T10:45:41.828Z,99514.70
2019-03-05T10:48:46.281Z,99506.45
2019-03-05T10:51:51.067Z,99509.93
2019-03-05T10:54:58.004Z,99520.83
2019-03-05T10:58:02.490Z,99531.42
2019-03-05T11:01:10.004Z,99530.37
2019-03-05T11:04:14.310Z,99541.41
2019-03-05T11:07:18.738Z,99544.75
2019-03-05T11:10:23.050Z,99546.11
2019-03-05T11:13:27.415Z,99543.55
2019-03-05T11:16:31.766Z,99545.29
2019-03-05T11:19:36.166Z,99557.99
2019-03-05T11:22:40.459Z,99557.41
2019-03-05T11:25:44.940Z,99564.13
2019-03-05T11:28:49.295Z,99562.09
2019-03-05T11:31:53.769Z,99570.36
2019-03-05T11:34:58.223Z,99590.48
2019-03-05T11:38:05.710Z,99583.13
2019-03-05T11:41:11.047Z,99594.06
2019-03-05T11:44:15.387Z,99598.54
2019-03-05T11:47:19.781Z,99602.30
2019-03-05T11:50:24.379Z,99601.16
2019-03-05T11:53:28.688Z,99605.47
2019-03-05T11:56:32.951Z,99617.40
2019-03-05T11:59:37.307Z,99624.23
2019-03-05T12:02:41.757Z,99630.92
2019-03-05T12:05:46.258Z,99629.36
2019-03-05T12:08:50.545Z,99638.62
2019-03-05T12:11:55.129Z,99630.30
2019-03-05T12:14:59.460Z,99639.23
2019-03-05T12:18:03.758Z,99644.95
2019-03-05T12:21:08.093Z,99650.64
2019-03-05T12:24:12.420Z,99657.27
2019-03-05T12:27:16.739Z,99664.21
2019-03-05T12:30:22.815Z,99665.11
2019-03-05T12:33:28.811Z,99663.95
2019-03-05T12:36:33.113Z,99684.16
2019-03-05T12:39:37.393Z,99685.85
2019-03-05T12:42:41.699Z,99672.70
2019-03-05T12:45:45.988Z,99694.08
2019-03-05T12:48:50.265Z,99695.03
2019-03-05T12:51:54.595Z,99694.91
2019-03-05T12:55:01.048Z,99692.36
2019-03-05T12:58:05.682Z,99709.41
2019-03-05T13:01:10.493Z,99719.10
2019-03-05T13:04:15.875Z,99715.97
2019-03-05T13:07:20.461Z,99722.20
2019-03-05T13:10:24.775Z,99723.31
2019-03-05T13:13:31.567Z,99723.75
2019-03-05T13:16:39.369Z,99726.91
2019-03-05T13:19:44.370Z,99730.66
2019-03-05T13:22:48.645Z,99746.12
2019-03-05T13:25:53.107Z,99765.00
2019-03-05T13:28:57.791Z,99756.50
2019-03-05T13:32:02.225Z,99768.73
2019-03-05T13:35:08.181Z,99779.48
2019-03-05T13:38:12.488Z,99775.22
2019-03-05T13:41:16.930Z,99786.32
2019-03-05T13:44:37.050Z,99773.91
2019-03-05T13:47:43.379Z,99787.36
2019-03-05T13:51:00.441Z,99798.28
2019-03-05T13:54:43.866Z,99804.00
2019-03-05T13:58:37.546Z,99811.23
2019-03-05T14:01:41.961Z,99817.09
2019-03-05T14:05:16.187Z,99833.65
2019-03-05T14:08:57.258Z,99816.98
2019-03-05T14:12:01.824Z,99835.30
2019-03-05T14:15:07.134Z,99845.77
2019-03-05T14:18:11.650Z,99839.28
2019-03-05T14:21:16.047Z,99850.80
2019-03-05T14:24:20.390Z,99857.31
2019-03-05T14:27:24.727Z,99862.16
2019-03-05T14:30:29.487Z,99866.56
2019-03-05T14:33:33.861Z,99870.41
2019-03-05T14:36:38.259Z,99866.99
2019-03-05T14:39:42.628Z,99889.69
2019-03-05T14:42:46.980Z,99888.79
2019-03-05T14:45:51.476Z,99895.16
2019-03-05T14:48:55.958Z,99900.67
2019-03-05T14:52:00.389Z,99891.60
2019-03-05T14:55:04.993Z,99902.02
2019-03-05T14:58:09.332Z,99911.63
2019-03-05T15:01:13.671Z,99923.92
2019-03-05T15:04:18.133Z,99919.19
2019-03-05T15:07:24.596Z,99929.45
2019-03-05T15:10:32.217Z,99922.34
2019-03-05T15:13:36.569Z,99941.91
2019-03-05T15:16:40.914Z,99942.57
2019-03-05T15:19:45.266Z,99942.62
2019-03-05T15:23:04.259Z,99948.95
2019-03-05T15:26:10.807Z,99949.16
2019-03-05T15:29:15.829Z,99964.86
2019-03-05T15:32:52.392Z,99968.41
2019-03-05T15:36:24.026Z,99967.68
2019-03-05T15:39:57.934Z,99986.20
2019-03-05T15:43:13.137Z,99988.97
2019-03-05T15:46:35.779Z,99995.19
2019-03-05T15:49:40.036Z,100010.77
2019-03-05T15:52:44.489Z,100009.34
2019-03-05T15:55:48.883Z,100018.86
2019-03-05T15:58:55.613Z,100018.02
2019-03-05T16:02:00.037Z,100024.15
2019-03-05T16:05:11.744Z,100027.03
2019-03-05T16:08:10.423Z,100031.63
2019-03-05T16:11:14.730Z,100040.50
2019-03-05T16:14:19.013Z,100039.77
2019-03-05T16:17:24.207Z,100046.77
2019-03-05T16:20:29.868Z,100047.59
2019-03-05T16:23:34.139Z,100055.58
2019-03-05T16:26:38.598Z,100057.34
2019-03-05T16:29:43.295Z,100064.58
2019-03-05T16:33:00.008Z,100070.73
2019-03-05T16:36:39.391Z,100076.95
2019-03-05T16:40:16.651Z,100088.53
2019-03-05T16:43:37.293Z,100085.33
2019-03-05T16:47:03.764Z,100100.03
2019-03-05T16:50:27.186Z,100115.57
2019-03-05T16:53:54.230Z,100117.38
2019-03-05T16:57:13.047Z,100137.77
2019-03-05T17:00:51.126Z,100132.61
2019-03-05T17:04:17.454Z,100141.50
2019-03-05T17:07:40.643Z,100154.82
2019-03-05T17:11:11.708Z,100154.02
2019-03-05T17:14:16.066Z,100170.27
2019-03-05T17:17:20.454Z,100179.14
2019-03-05T17:20:24.874Z,100190.14
2019-03-05T17:23:29.238Z,100186.11
2019-03-05T17:26:36.009Z,100196.23
2019-03-05T17:29:40.335Z,100209.87
2019-03-05T17:32:47.364Z,100200.14
2019-03-05T17:35:53.791Z,100209.39
2019-03-05T17:38:59.470Z,100230.55
2019-03-05T17:42:04.533Z,100222.70
2019-03-05T17:45:15.505Z,100240.31
2019-03-05T17:48:19.858Z,100244.92
2019-03-05T17:51:24.707Z,100249.33
2019-03-05T17:54:29.211Z,100252.88
2019-03-05T17:57:33.722Z,100252.24
2019-03-05T18:00:39.254Z,100259.86
2019-03-05T18:03:43.643Z,100271.83
2019-03-05T18:06:48.184Z,100277.61
2019-03-05T18:09:52.673Z,100278.86
2019-03-05T18:12:57.029Z,100290.36
2019-03-05T18:16:01.752Z,100281.50
2019-03-05T18:19:06.101Z,100286.30
2019-03-05T18:22:10.687Z,100293.66
2019-03-05T18:25:16.657Z,100297.14
2019-03-05T18:28:21.094Z,100296.16
2019-03-05T18:31:25.594Z,100308.28
2019-03-05T18:34:29.934Z,100306.15
2019-03-05T18:37:34.293Z,100314.03
2019-03-05T18:40:38.921Z,100323.00
2019-03-05T18:43:43.469Z,100320.42
2019-03-05T18:46:47.949Z,100330.28
2019-03-05T18:49:52.305Z,100330.75
2019-03-05T18:53:00.014Z,100346.11
2019-03-05T18:56:04.870Z,100337.34
2019-03-05T18:59:09.280Z,100346.14
2019-03-05T19:02:13.717Z,100343.56
2019-03-05T19:05:18.697Z,100348.45
2019-03-05T19:08:23.373Z,100348.59
2019-03-05T19:11:30.016Z,100352.23
2019-03-05T19:14:34.644Z,100366.73
2019-03-05T19:17:39.194Z,100356.09
2019-03-05T19:20:45.002Z,100364.02
2019-03-05T19:23:49.555Z,100367.06
2019-03-05T19:26:54.304Z,100381.62
2019-03-05T19:29:58.937Z,100385.12
2019-03-05T19:33:04.045Z,100388.63
2019-03-05T19:36:08.992Z,100386.81
2019-03-05T19:39:15.287Z,100395.69
2019-03-05T19:42:22.199Z,100397.47
2019-03-05T19:45:27.031Z,100398.38
2019-03-05T19:48:31.878Z,100395.45
2019-03-05T19:51:36.666Z,100396.78
2019-03-05T19:54:41.599Z,100403.87
2019-03-05T19:57:46.358Z,100411.36
2019-03-05T20:01:11.700Z,100418.41
2019-03-05T20:04:16.508Z,100419.17
2019-03-05T20:07:21.169Z,100431.96
2019-03-05T20:10:26.355Z,100435.45
2019-03-05T20:13:33.787Z,100446.31
2019-03-05T20:16:38.724Z,100449.92
2019-03-05T20:19:43.546Z,100443.31
2019-03-05T20:22:48.383Z,100443.74
2019-03-05T20:25:54.734Z,100445.95
2019-03-05T20:28:59.668Z,100455.17
2019-03-05T20:32:04.626Z,100452.52
2019-03-05T20:35:09.677Z,100458.22
2019-03-05T20:38:16.578Z,100457.30
2019-03-05T20:41:24.601Z,100465.23
2019-03-05T20:44:29.711Z,100470.51
2019-03-05T20:47:34.862Z,100473.14
2019-03-05T20:50:39.921Z,100478.01
2019-03-05T20:53:45.036Z,100480.56
2019-03-05T20:56:50.166Z,100477.50
2019-03-05T20:59:56.601Z,100481.89
2019-03-05T21:03:06.945Z,100482.31
2019-03-05T21:06:11.972Z,100479.25
2019-03-05T21:09:24.525Z,100474.42
2019-03-05T21:12:29.490Z,100476.13
2019-03-05T21:15:34.505Z,100475.64
2019-03-05T21:18:39.946Z,100482.66
2019-03-05T21:21:44.784Z,100485.23
2019-03-05T21:24:49.497Z,100500.59
2019-03-05T21:27:54.405Z,100496.19
2019-03-05T21:31:01.004Z,100498.80
2019-03-05T21:34:05.745Z,100502.35
2019-03-05T21:37:10.550Z,100505.74
2019-03-05T21:40:19.885Z,100509.27
2019-03-05T21:43:24.480Z,100511.42
2019-03-05T21:46:29.126Z,100520.18
2019-03-05T21:49:33.776Z,100514.88
2019-03-05T21:52:38.837Z,100516.25
2019-03-05T21:55:43.465Z,100531.16
2019-03-05T21:58:49.701Z,100524.61
2019-03-05T22:01:56.489Z,100528.96
2019-03-05T22:05:00.915Z,100532.41
2019-03-05T22:08:05.875Z,100536.83
2019-03-05T22:11:10.593Z,100539.08
2019-03-05T22:14:14.924Z,100535.50
2019-03-05T22:17:19.227Z,100530.72
2019-03-05T22:20:23.998Z,100528.98
2019-03-05T22:23:28.622Z,100519.28
2019-03-05T22:26:33.257Z,100529.96
2019-03-05T22:29:40.782Z,100531.23
2019-03-05T22:32:45.108Z,100535.19
2019-03-05T22:35:49.423Z,100535.21
2019-03-05T22:38:53.834Z,100531.83
2019-03-05T22:41:58.636Z,100526.64
2019-03-05T22:45:03.238Z,100527.95
2019-03-05T22:48:07.979Z,100542.99
2019-03-05T22:51:12.314Z,100540.31
2019-03-05T22:54:16.794Z,100535.84
2019-03-05T22:57:21.212Z,100549.57
2019-03-05T23:00:59.348Z,100544.30
2019-03-05T23:04:04.080Z,100548.17
2019-03-05T23:07:12.702Z,100538.48
2019-03-05T23:10:18.325Z,100541.57
2019-03-05T23:13:23.074Z,100533.68
2019-03-05T23:16:27.688Z,100528.41
2019-03-05T23:19:32.212Z,100533.61
2019-03-05T23:22:36.704Z,100523.94
2019-03-05T23:25:41.178Z,100532.27
2019-03-05T23:28:45.604Z,100537.91
2019-03-05T23:31:52.514Z,100537.02
2019-03-05T23:34:56.928Z,100538.77
2019-03-05T23:38:01.729Z,100547.09
2019-03-05T23:41:06.153Z,100544.47
2019-03-05T23:44:10.815Z,100544.42
2019-03-05T23:47:15.207Z,100550.14
2019-03-05T23:50:19.890Z,100541.73
2019-03-05T23:53:27.034Z,100539.58
2019-03-05T23:56:31.444Z,100531.23
2019-03-05T23:59:35.768Z,100529.30
